createdAt,value
2022-11-04T00:00:29.992Z,5.90
2022-11-04T00:03:02.597Z,5.90
2022-11-04T00:05:30.393Z,5.90
2022-11-04T00:08:17.168Z,5.80
2022-11-04T00:11:04.055Z,5.80
2022-11-04T00:13:34.023Z,5.70
2022-11-04T00:16:23.534Z,5.60
2022-11-04T00:18:51.407Z,5.50
2022-11-04T00:21:38.076Z,5.60
2022-11-04T00:24:25.143Z,5.50
2022-11-04T00:27:11.869Z,5.50
2022-11-04T00:29:39.830Z,5.40
2022-11-04T00:32:26.409Z,5.40
2022-11-04T00:34:54.799Z,5.30
2022-11-04T00:37:27.197Z,5.30
2022-11-04T00:39:58.274Z,5.30
2022-11-04T00:42:28.866Z,5.30
2022-11-04T00:44:59.659Z,5.30
2022-11-04T00:47:27.597Z,5.20
2022-11-04T00:49:55.395Z,5.20
2022-11-04T00:52:23.138Z,5.20
2022-11-04T00:54:51.444Z,5.20
2022-11-04T00:57:19.232Z,5.20
2022-11-04T00:59:47.412Z,5.10
2022-11-04T01:02:21.459Z,5.20
2022-11-04T01:04:49.335Z,5.20
2022-11-04T01:07:19.718Z,5.20
2022-11-04T01:09:52.338Z,5.20
2022-11-04T01:12:26.851Z,5.10
2022-11-04T01:14:54.643Z,5.10
2022-11-04T01:17:25.171Z,5.10
2022-11-04T01:19:55.090Z,5.10
2022-11-04T01:22:25.174Z,5.10
2022-11-04T01:24:57.171Z,5.20
2022-11-04T01:27:27.210Z,5.20
2022-11-04T01:29:55.526Z,5.20
2022-11-04T01:32:23.329Z,5.20
2022-11-04T01:34:50.953Z,5.20
2022-11-04T01:37:21.244Z,5.20
2022-11-04T01:39:49.532Z,5.20
2022-11-04T01:42:22.300Z,5.10
2022-11-04T01:44:59.618Z,5.10
2022-11-04T01:47:41.166Z,5.10
2022-11-04T01:50:14.729Z,5.10
2022-11-04T01:52:53.791Z,5.10
2022-11-04T01:55:26.630Z,5.10
2022-11-04T01:58:01.760Z,5.00
2022-11-04T02:00:32.581Z,5.00
2022-11-04T02:03:23.773Z,5.00
2022-11-04T02:05:54.118Z,5.00
2022-11-04T02:08:30.635Z,5.00
2022-11-04T02:11:03.478Z,4.90
2022-11-04T02:13:36.050Z,4.90
2022-11-04T02:16:45.909Z,4.90
2022-11-04T02:19:48.719Z,4.80
2022-11-04T02:22:55.380Z,4.80
2022-11-04T02:25:53.358Z,4.70
2022-11-04T02:28:31.562Z,4.70
2022-11-04T02:31:12.266Z,4.70
2022-11-04T02:33:54.533Z,4.60
2022-11-04T02:36:28.454Z,4.60
2022-11-04T02:39:07.093Z,4.50
2022-11-04T02:41:54.625Z,4.60
2022-11-04T02:44:38.173Z,4.60
2022-11-04T02:47:16.545Z,4.60
2022-11-04T02:50:00.791Z,4.60
2022-11-04T02:52:39.233Z,4.60
2022-11-04T02:55:42.075Z,4.70
2022-11-04T02:58:23.840Z,4.60
2022-11-04T03:00:56.872Z,4.60
2022-11-04T03:03:26.390Z,4.60
2022-11-04T03:06:01.285Z,4.60
2022-11-04T03:08:37.110Z,4.50
2022-11-04T03:11:23.490Z,4.50
2022-11-04T03:13:55.150Z,4.50
2022-11-04T03:16:47.295Z,4.50
2022-11-04T03:19:34.178Z,4.50
2022-11-04T03:22:10.843Z,4.50
2022-11-04T03:24:39.407Z,4.40
2022-11-04T03:27:33.055Z,4.40
2022-11-04T03:30:11.803Z,4.30
2022-11-04T03:32:45.903Z,4.30
2022-11-04T03:35:16.222Z,4.30
2022-11-04T03:37:48.497Z,4.30
2022-11-04T03:40:20.371Z,4.30
2022-11-04T03:42:59.344Z,4.30
2022-11-04T03:45:30.782Z,4.30
2022-11-04T03:47:58.930Z,4.20
2022-11-04T03:50:35.791Z,4.20
2022-11-04T03:53:06.028Z,4.20
2022-11-04T03:55:53.467Z,4.20
2022-11-04T03:58:36.751Z,4.20
2022-11-04T04:01:11.194Z,4.20
2022-11-04T04:03:55.369Z,4.20
2022-11-04T04:06:33.355Z,4.20
2022-11-04T04:09:14.852Z,4.10
2022-11-04T04:11:51.208Z,4.10
2022-11-04T04:14:40.386Z,4.10
2022-11-04T04:17:39.259Z,4.10
2022-11-04T04:20:12.710Z,4.00
2022-11-04T04:22:45.135Z,4.00
2022-11-04T04:25:33.338Z,4.00
2022-11-04T04:28:02.114Z,4.00
2022-11-04T04:30:35.619Z,4.00
2022-11-04T04:33:09.661Z,4.10
2022-11-04T04:35:55.125Z,4.10
2022-11-04T04:38:46.691Z,4.10
2022-11-04T04:41:47.052Z,4.10
2022-11-04T04:44:42.719Z,4.00
2022-11-04T04:47:20.413Z,4.00
2022-11-04T04:49:58.292Z,4.00
2022-11-04T04:52:35.672Z,4.00
2022-11-04T04:55:03.733Z,3.90
2022-11-04T04:57:34.088Z,3.90
2022-11-04T05:00:02.175Z,3.80
2022-11-04T05:02:30.621Z,3.70
2022-11-04T05:04:59.516Z,3.70
2022-11-04T05:07:32.505Z,3.60
2022-11-04T05:10:00.220Z,3.50
2022-11-04T05:12:48.347Z,3.50
2022-11-04T05:15:17.213Z,3.50
2022-11-04T05:17:53.256Z,3.50
2022-11-04T05:20:24.836Z,3.50
2022-11-04T05:22:54.526Z,3.60
2022-11-04T05:25:24.879Z,3.60
2022-11-04T05:27:53.114Z,3.70
2022-11-04T05:30:21.268Z,3.80
2022-11-04T05:32:49.510Z,3.80
2022-11-04T05:35:17.295Z,3.90
2022-11-04T05:37:45.478Z,4.00
2022-11-04T05:40:16.438Z,3.90
2022-11-04T05:42:45.267Z,4.00
2022-11-04T05:45:19.329Z,4.00
2022-11-04T05:47:49.508Z,4.00
2022-11-04T05:50:20.254Z,4.00
2022-11-04T05:52:49.115Z,4.00
2022-11-04T05:55:17.058Z,3.90
2022-11-04T05:57:45.389Z,4.00
2022-11-04T06:00:13.648Z,4.00
2022-11-04T06:02:41.576Z,3.90
2022-11-04T06:05:09.951Z,3.90
2022-11-04T06:07:37.849Z,3.90
2022-11-04T06:10:09.164Z,4.00
2022-11-04T06:12:37.419Z,3.90
2022-11-04T06:15:10.554Z,3.90
2022-11-04T06:17:38.435Z,3.90
2022-11-04T06:20:10.574Z,3.90
2022-11-04T06:22:38.754Z,3.90
2022-11-04T06:25:06.882Z,3.90
2022-11-04T06:27:37.395Z,4.00
2022-11-04T06:30:07.512Z,4.00
2022-11-04T06:32:38.193Z,4.00
2022-11-04T06:35:08.986Z,4.00
2022-11-04T06:37:37.976Z,4.00
2022-11-04T06:40:06.322Z,4.00
2022-11-04T06:42:37.066Z,4.00
2022-11-04T06:45:05.585Z,4.00
2022-11-04T06:47:34.482Z,4.00
2022-11-04T06:50:04.695Z,3.90
2022-11-04T06:52:35.772Z,3.90
2022-11-04T06:55:06.796Z,3.90
2022-11-04T06:57:40.163Z,3.90
2022-11-04T07:00:08.481Z,3.80
2022-11-04T07:02:39.243Z,3.80
2022-11-04T07:05:07.326Z,3.80
2022-11-04T07:07:35.004Z,3.80
2022-11-04T07:10:03.215Z,3.80
2022-11-04T07:12:33.339Z,3.70
2022-11-04T07:15:02.129Z,3.70
2022-11-04T07:17:30.033Z,3.70
2022-11-04T07:19:58.239Z,3.70
2022-11-04T07:22:26.074Z,3.70
2022-11-04T07:24:54.785Z,3.60
2022-11-04T07:27:22.825Z,3.60
2022-11-04T07:29:53.155Z,3.60
2022-11-04T07:32:23.706Z,3.60
2022-11-04T07:34:51.542Z,3.60
2022-11-04T07:37:22.061Z,3.60
2022-11-04T07:39:49.794Z,3.50
2022-11-04T07:42:21.014Z,3.70
2022-11-04T07:44:54.543Z,3.70
2022-11-04T07:47:22.791Z,3.70
2022-11-04T07:49:51.593Z,3.80
2022-11-04T07:52:19.480Z,3.80
2022-11-04T07:54:47.821Z,3.90
2022-11-04T07:57:15.574Z,4.10
2022-11-04T07:59:43.981Z,4.20
2022-11-04T08:02:15.054Z,4.30
2022-11-04T08:04:45.895Z,4.40
2022-11-04T08:07:13.702Z,4.50
2022-11-04T08:09:44.058Z,4.50
2022-11-04T08:12:14.799Z,4.50
2022-11-04T08:14:45.310Z,4.70
2022-11-04T08:17:13.503Z,4.70
2022-11-04T08:19:45.213Z,4.80
2022-11-04T08:22:13.516Z,4.80
2022-11-04T08:24:47.379Z,4.90
2022-11-04T08:27:16.098Z,4.90
2022-11-04T08:29:46.926Z,5.10
2022-11-04T08:32:14.590Z,5.10
2022-11-04T08:34:42.222Z,5.20
2022-11-04T08:37:10.047Z,5.30
2022-11-04T08:39:40.224Z,5.40
2022-11-04T08:42:10.594Z,5.50
2022-11-04T08:44:39.790Z,5.70
2022-11-04T08:47:12.812Z,5.80
2022-11-04T08:49:42.234Z,6.10
2022-11-04T08:52:12.197Z,6.30
2022-11-04T08:54:44.269Z,6.70
2022-11-04T08:57:14.812Z,7.10
2022-11-04T08:59:45.036Z,7.60
2022-11-04T09:02:16.728Z,8.20
2022-11-04T09:04:44.954Z,8.90
2022-11-04T09:07:14.994Z,9.60
2022-11-04T09:09:43.391Z,10.10
2022-11-04T09:12:11.381Z,10.20
2022-11-04T09:14:41.782Z,10.00
2022-11-04T09:17:09.898Z,9.70
2022-11-04T09:19:38.106Z,9.50
2022-11-04T09:22:06.486Z,9.20
2022-11-04T09:24:34.275Z,9.00
2022-11-04T09:27:02.421Z,8.80
2022-11-04T09:29:33.752Z,8.70
2022-11-04T09:32:01.555Z,8.60
2022-11-04T09:34:32.344Z,8.60
2022-11-04T09:37:02.923Z,8.50
2022-11-04T09:39:31.783Z,8.60
2022-11-04T09:42:25.636Z,8.80
2022-11-04T09:45:21.655Z,9.30
2022-11-04T09:47:53.836Z,10.20
2022-11-04T09:50:28.817Z,11.10
2022-11-04T09:53:09.610Z,11.90
2022-11-04T09:55:54.430Z,12.70
2022-11-04T09:58:23.352Z,13.50
2022-11-04T10:01:05.838Z,14.20
2022-11-04T10:03:54.315Z,14.90
2022-11-04T10:06:46.384Z,15.10
2022-11-04T10:09:37.169Z,15.80
2022-11-04T10:12:26.218Z,16.10
2022-11-04T10:15:29.402Z,16.50
2022-11-04T10:18:10.086Z,16.80
2022-11-04T10:20:52.527Z,16.80
2022-11-04T10:23:33.154Z,16.90
2022-11-04T10:26:34.333Z,16.90
2022-11-04T10:29:17.076Z,16.70
2022-11-04T10:31:47.941Z,16.50
2022-11-04T10:34:35.168Z,16.30
2022-11-04T10:37:04.631Z,16.40
2022-11-04T10:39:38.763Z,16.10
2022-11-04T10:42:06.635Z,15.70
2022-11-04T10:44:37.131Z,15.40
2022-11-04T10:47:22.719Z,15.10
2022-11-04T10:53:02.078Z,13.90
2022-11-04T10:55:48.172Z,13.30
2022-11-04T10:58:23.920Z,12.70
2022-11-04T11:00:55.727Z,12.30
2022-11-04T11:03:31.726Z,12.00
2022-11-04T11:06:34.506Z,11.80
2022-11-04T11:09:30.574Z,11.60
2022-11-04T11:12:09.841Z,11.70
2022-11-04T11:14:49.113Z,12.60
2022-11-04T11:17:39.533Z,13.70
2022-11-04T11:20:21.595Z,14.90
2022-11-04T11:22:52.371Z,15.90
2022-11-04T11:25:31.714Z,16.60
2022-11-04T11:27:59.810Z,17.10
2022-11-04T11:30:34.040Z,17.50
2022-11-04T11:33:16.309Z,17.50
2022-11-04T11:35:56.502Z,17.10
2022-11-04T11:38:31.084Z,16.70
2022-11-04T11:41:24.896Z,16.40
2022-11-04T11:43:55.446Z,15.70
2022-11-04T11:46:38.341Z,15.00
2022-11-04T11:49:06.552Z,14.30
2022-11-04T11:51:40.022Z,13.70
2022-11-04T11:54:22.928Z,13.30
2022-11-04T11:57:15.307Z,13.00
2022-11-04T12:03:01.648Z,12.50
2022-11-04T12:11:44.642Z,12.50
2022-11-04T12:14:38.851Z,12.60
2022-11-04T12:17:16.023Z,12.70
2022-11-04T12:20:10.153Z,12.60
2022-11-04T12:23:11.408Z,12.60
2022-11-04T12:26:01.188Z,12.50
2022-11-04T12:28:56.147Z,12.30
2022-11-04T12:31:29.959Z,12.10
2022-11-04T12:34:35.952Z,11.80
2022-11-04T12:37:14.315Z,11.60
2022-11-04T12:40:00.167Z,11.30
2022-11-04T12:45:29.167Z,11.20
2022-11-04T12:48:06.571Z,11.20
2022-11-04T12:50:48.902Z,11.40
2022-11-04T12:53:26.437Z,11.40
2022-11-04T12:56:18.107Z,11.60
2022-11-04T12:59:40.259Z,11.60
2022-11-04T13:02:23.916Z,11.70
2022-11-04T13:05:03.749Z,11.80
2022-11-04T13:07:46.616Z,11.80
2022-11-04T13:10:25.491Z,11.80
2022-11-04T13:13:00.976Z,11.80
2022-11-04T13:15:35.979Z,11.70
2022-11-04T13:18:14.355Z,11.60
2022-11-04T13:20:59.309Z,11.50
2022-11-04T13:24:12.263Z,11.50
2022-11-04T13:26:40.236Z,11.40
2022-11-04T13:29:15.573Z,11.50
2022-11-04T13:32:07.582Z,11.50
2022-11-04T13:35:00.205Z,11.60
2022-11-04T13:37:37.671Z,11.60
2022-11-04T13:40:18.330Z,11.60
2022-11-04T13:43:21.928Z,11.60
2022-11-04T13:45:55.969Z,11.60
2022-11-04T13:48:30.014Z,11.70
2022-11-04T13:51:00.683Z,11.80
2022-11-04T13:53:49.583Z,11.80
2022-11-04T13:56:35.337Z,11.90
2022-11-04T13:59:20.383Z,11.90
2022-11-04T14:01:48.373Z,11.90
2022-11-04T14:04:30.755Z,11.80
2022-11-04T14:07:08.928Z,11.70
2022-11-04T14:09:44.815Z,11.70
2022-11-04T14:12:13.621Z,11.70
2022-11-04T14:14:46.793Z,11.70
2022-11-04T14:17:33.810Z,11.70
2022-11-04T14:20:26.063Z,11.70
2022-11-04T14:22:59.011Z,11.70
2022-11-04T14:25:40.587Z,11.60
2022-11-04T14:28:11.375Z,11.60
2022-11-04T14:30:39.073Z,11.50
2022-11-04T14:33:19.388Z,11.40
2022-11-04T14:35:53.317Z,11.40
2022-11-04T14:38:29.253Z,11.30
2022-11-04T14:41:14.566Z,11.20
2022-11-04T14:43:47.207Z,11.30
2022-11-04T14:46:24.849Z,11.30
2022-11-04T14:48:56.081Z,11.30
2022-11-04T14:51:33.006Z,11.40
2022-11-04T14:54:05.501Z,11.40
2022-11-04T14:56:33.533Z,11.50
2022-11-04T14:59:05.642Z,11.50
2022-11-04T15:01:40.097Z,11.50
2022-11-04T15:04:29.802Z,11.40
2022-11-04T15:07:00.181Z,11.30
2022-11-04T15:09:54.198Z,11.20
2022-11-04T15:12:40.396Z,11.10
2022-11-04T15:15:32.426Z,11.10
2022-11-04T15:18:09.388Z,11.00
2022-11-04T15:20:54.031Z,11.00
2022-11-04T15:23:29.721Z,10.90
2022-11-04T15:25:59.615Z,10.90
2022-11-04T15:28:30.676Z,10.90
2022-11-04T15:31:13.332Z,10.90
2022-11-04T15:33:44.774Z,11.00
2022-11-04T15:36:25.235Z,11.00
2022-11-04T15:39:16.275Z,11.00
2022-11-04T15:42:03.692Z,11.00
2022-11-04T15:44:36.625Z,11.00
2022-11-04T15:47:27.461Z,11.00
2022-11-04T15:50:04.231Z,10.90
2022-11-04T15:52:32.274Z,10.80
2022-11-04T15:55:01.425Z,10.60
2022-11-04T15:57:39.364Z,10.60
2022-11-04T16:00:22.724Z,10.60
2022-11-04T16:02:56.391Z,10.50
2022-11-04T16:05:34.308Z,10.40
2022-11-04T16:08:21.503Z,10.30
2022-11-04T16:10:52.454Z,10.20
2022-11-04T16:13:24.498Z,10.10
2022-11-04T16:16:09.171Z,10.10
2022-11-04T16:18:50.919Z,10.00
2022-11-04T16:21:28.899Z,10.00
2022-11-04T16:24:01.543Z,9.90
2022-11-04T16:26:39.980Z,9.80
2022-11-04T16:29:10.573Z,9.70
2022-11-04T16:31:38.774Z,9.70
2022-11-04T16:34:13.348Z,9.60
2022-11-04T16:36:41.252Z,9.50
2022-11-04T16:39:09.241Z,9.40
2022-11-04T16:41:39.358Z,9.30
2022-11-04T16:44:18.923Z,9.20
2022-11-04T16:46:46.830Z,9.20
2022-11-04T16:49:19.321Z,9.10
2022-11-04T16:51:59.301Z,9.10
2022-11-04T16:54:27.615Z,9.00
2022-11-04T16:56:56.507Z,9.00
2022-11-04T16:59:24.903Z,8.90
2022-11-04T17:01:55.855Z,8.80
2022-11-04T17:04:23.628Z,8.80
2022-11-04T17:06:51.855Z,8.70
2022-11-04T17:09:23.022Z,8.70
2022-11-04T17:11:50.917Z,8.60
2022-11-04T17:14:21.051Z,8.60
2022-11-04T17:16:51.767Z,8.70
2022-11-04T17:19:22.227Z,8.70
2022-11-04T17:21:50.618Z,8.70
2022-11-04T17:24:20.521Z,8.80
2022-11-04T17:26:48.116Z,8.90
2022-11-04T17:29:18.857Z,8.90
2022-11-04T17:31:47.229Z,9.00
2022-11-04T17:34:17.373Z,9.00
2022-11-04T17:36:45.454Z,9.10
2022-11-04T17:39:13.105Z,9.10
2022-11-04T17:41:59.559Z,9.20
2022-11-04T17:44:27.338Z,9.20
2022-11-04T17:46:55.787Z,9.30
2022-11-04T17:49:25.457Z,9.30
2022-11-04T17:51:58.395Z,9.30
2022-11-04T17:54:29.782Z,9.30
2022-11-04T17:56:58.467Z,9.30
2022-11-04T17:59:28.438Z,9.40
2022-11-04T18:01:58.992Z,9.40
2022-11-04T18:04:29.563Z,9.40
2022-11-04T18:07:02.361Z,9.40
2022-11-04T18:09:33.875Z,9.40
2022-11-04T18:12:20.566Z,9.40
2022-11-04T18:14:48.417Z,9.40
2022-11-04T18:17:16.361Z,9.50
2022-11-04T18:19:48.682Z,9.40
2022-11-04T18:22:19.194Z,9.40
2022-11-04T18:24:47.995Z,9.40
2022-11-04T18:27:21.391Z,9.40
2022-11-04T18:29:49.535Z,9.30
2022-11-04T18:32:19.416Z,9.30
2022-11-04T18:34:53.425Z,9.30
2022-11-04T18:37:24.747Z,9.20
2022-11-04T18:39:53.654Z,9.20
2022-11-04T18:42:23.774Z,9.10
2022-11-04T18:44:52.486Z,9.10
2022-11-04T18:47:24.012Z,9.10
2022-11-04T18:49:52.362Z,9.00
2022-11-04T18:52:20.503Z,9.00
2022-11-04T18:54:56.406Z,9.00
2022-11-04T18:57:27.586Z,9.00
2022-11-04T18:59:58.642Z,9.00
2022-11-04T19:02:31.688Z,9.00
2022-11-04T19:05:03.175Z,9.00
2022-11-04T19:07:33.953Z,8.90
2022-11-04T19:10:02.124Z,8.90
2022-11-04T19:12:48.875Z,8.90
2022-11-04T19:15:16.700Z,8.80
2022-11-04T19:17:47.275Z,8.80
2022-11-04T19:20:15.492Z,8.80
2022-11-04T19:22:43.835Z,8.80
2022-11-04T19:25:13.996Z,8.80
2022-11-04T19:27:41.692Z,8.80
2022-11-04T19:30:10.249Z,8.80
2022-11-04T19:32:37.913Z,8.70
2022-11-04T19:35:06.991Z,8.70
2022-11-04T19:37:35.299Z,8.70
2022-11-04T19:40:05.840Z,8.70
2022-11-04T19:42:54.979Z,8.70
2022-11-04T19:45:23.796Z,8.60
2022-11-04T19:47:51.877Z,8.50
2022-11-04T19:50:19.680Z,8.40
2022-11-04T19:52:52.203Z,8.30
2022-11-04T19:55:23.855Z,8.20
2022-11-04T19:57:51.596Z,8.20
2022-11-04T20:00:19.900Z,8.00
2022-11-04T20:02:48.208Z,8.00
2022-11-04T20:05:19.597Z,8.00
2022-11-04T20:10:25.840Z,8.00
2022-11-04T20:13:29.038Z,8.00
2022-11-04T20:15:59.760Z,8.10
2022-11-04T20:18:30.634Z,8.20
2022-11-04T20:20:58.372Z,8.20
2022-11-04T20:23:26.049Z,8.30
2022-11-04T20:25:55.956Z,8.30
2022-11-04T20:28:24.754Z,8.40
2022-11-04T20:30:52.441Z,8.40
2022-11-04T20:33:21.159Z,8.40
2022-11-04T20:35:49.298Z,8.50
2022-11-04T20:38:17.355Z,8.40
2022-11-04T20:40:48.389Z,8.40
2022-11-04T20:43:16.787Z,8.40
2022-11-04T20:45:48.318Z,8.30
2022-11-04T20:48:19.642Z,8.30
2022-11-04T20:50:50.175Z,8.30
2022-11-04T20:53:18.039Z,8.30
2022-11-04T20:55:51.461Z,8.30
2022-11-04T20:58:19.103Z,8.30
2022-11-04T21:00:47.113Z,8.30
2022-11-04T21:03:14.890Z,8.30
2022-11-04T21:05:46.185Z,8.30
2022-11-04T21:08:14.305Z,8.40
2022-11-04T21:10:50.669Z,8.40
2022-11-04T21:13:18.533Z,8.40
2022-11-04T21:15:52.950Z,8.50
2022-11-04T21:18:21.898Z,8.50
2022-11-04T21:20:51.366Z,8.50
2022-11-04T21:23:21.437Z,8.50
2022-11-04T21:25:59.162Z,8.60
2022-11-04T21:28:27.055Z,8.60
2022-11-04T21:31:03.878Z,8.60
2022-11-04T21:33:31.584Z,8.60
2022-11-04T21:36:11.988Z,8.60
2022-11-04T21:38:43.123Z,8.60
2022-11-04T21:41:16.128Z,8.60
2022-11-04T21:43:53.489Z,8.60
2022-11-04T21:46:23.343Z,8.60
2022-11-04T21:48:51.759Z,8.60
2022-11-04T21:51:26.679Z,8.60
2022-11-04T21:53:54.874Z,8.60
2022-11-04T21:56:29.002Z,8.60
2022-11-04T21:58:59.383Z,8.60
2022-11-04T22:01:31.842Z,8.60
2022-11-04T22:04:02.418Z,8.60
2022-11-04T22:06:34.632Z,8.60
2022-11-04T22:09:05.723Z,8.50
2022-11-04T22:11:39.945Z,8.50
2022-11-04T22:14:09.034Z,8.50
2022-11-04T22:16:40.473Z,8.50
2022-11-04T22:19:13.677Z,8.60
2022-11-04T22:21:43.231Z,8.60
2022-11-04T22:24:16.201Z,8.60
2022-11-04T22:26:44.499Z,8.60
2022-11-04T22:29:13.215Z,8.60
2022-11-04T22:31:43.105Z,8.60
2022-11-04T22:34:13.686Z,8.60
2022-11-04T22:36:46.560Z,8.50
2022-11-04T22:39:16.913Z,8.50
2022-11-04T22:41:46.387Z,8.50
2022-11-04T22:44:15.455Z,8.50
2022-11-04T22:46:47.232Z,8.40
2022-11-04T22:49:15.474Z,8.40
2022-11-04T22:51:45.677Z,8.30
2022-11-04T22:54:19.029Z,8.30
2022-11-04T22:56:51.693Z,8.30
2022-11-04T22:59:19.472Z,8.20
2022-11-04T23:01:47.379Z,8.30
2022-11-04T23:04:15.846Z,8.20
2022-11-04T23:06:44.146Z,8.30
2022-11-04T23:09:15.602Z,8.20
2022-11-04T23:12:03.265Z,8.20
2022-11-04T23:14:43.586Z,8.20
2022-11-04T23:17:42.295Z,8.20
2022-11-04T23:20:14.323Z,8.20
2022-11-04T23:23:00.838Z,8.20
2022-11-04T23:25:28.729Z,8.20
2022-11-04T23:28:17.622Z,8.20
2022-11-04T23:30:50.647Z,8.20
2022-11-04T23:33:40.456Z,8.20
2022-11-04T23:36:27.722Z,8.20
2022-11-04T23:38:55.581Z,8.20
2022-11-04T23:41:42.638Z,8.10
2022-11-04T23:44:31.207Z,8.20
2022-11-04T23:47:18.248Z,8.20
2022-11-04T23:50:04.751Z,8.20
2022-11-04T23:53:01.473Z,8.20
2022-11-04T23:55:48.449Z,8.20
2022-11-04T23:58:35.181Z,8.20
